2017-12-18 - 20:04:00

SR: 0734 - SS: 1518

RWY: 25


OBSERVATION: n/a

RVR Mean 1 min: (Runway Visual Range)
A: P2000 - B: P2000 - C: P2000
RVR Mean 10 min:
A: P2000 - B: P2000 - C: P2000
WARNING: n/a
W25: 290-340(330-04kt) 03kt-06kt
W07: 280-350(300-02kt) 02kt-05kt
OTHER: n/a

QFE: (tats�chlicher Luftdruck) 1023.3 hPa = 30.20 inHg
QNH:(Luftdruck auf Meeresh�he) 1029.2 hPa = 30.38 inHg
Temperatur: 2.3 �C
Dew point(Taupunkt): 2.2 �C

METAR:  00906 SADL31 EDDG 181950 METAR EDDG 181950Z 32003KT 2200 BR BKN002 02/02 Q1029 NOSIG= 
METAR (aus weather.noaa.gov):
2017/12/18 19:50 EDDG 181950Z 32003KT 2200 BR BKN002 02/02 Q1029 NOSIG

TAF (aus weather.noaa.gov):
2017/12/18 18:27 TAF EDDG 181700Z 1818/1918 VRB03KT 4000 BR BKN006 TEMPO 1818/1821 6000 BKN004 TEMPO 1821/1904 2500 BR BKN004 BECMG 1904/1907 BKN004 TEMPO 1904/1918 2000 DZRA BECMG 1909/1912 23006KT